Time;durP1;ratioP1;P1;durP2;ratioP2;P2;SDS_P1;SDS_P2;PMS_P1;PMS_P2;Temp;Humidity;BMP_temperature;BMP_pressure;BME280_temperature;BME280_humidity;BME280_pressure;Samples;Min_cycle;Max_cycle;Signal;HPM_P1;HPM_P2
2022/12/06 00:02:04;;;;;;;294.50;107.20;;;;;;;3.22;100.00;100858.48;106953;1234;98978;-63
2022/12/06 00:04:29;;;;;;;289.20;102.90;;;;;;;3.26;100.00;100857.38;106691;1233;139477;-63
2022/12/06 00:06:56;;;;;;;293.30;103.30;;;;;;;3.30;100.00;100856.29;106892;1229;101782;-63
2022/12/06 00:09:24;;;;;;;288.90;101.80;;;;;;;3.30;100.00;100855.21;106725;1236;139781;-64
2022/12/06 00:11:49;;;;;;;285.40;95.10;;;;;;;3.31;100.00;100853.45;106903;1251;107185;-63
2022/12/06 00:14:15;;;;;;;293.40;100.30;;;;;;;3.32;100.00;100850.97;106771;1236;99015;-63
2022/12/06 00:16:41;;;;;;;272.50;97.20;;;;;;;3.33;100.00;100841.95;106608;1232;139429;-63
2022/12/06 00:19:06;;;;;;;278.40;98.30;;;;;;;3.32;100.00;100839.83;106826;1236;99083;-62
2022/12/06 00:21:37;;;;;;;278.90;96.40;;;;;;;3.34;100.00;100837.34;106726;1246;140589;-63
2022/12/06 00:24:06;;;;;;;302.80;97.80;;;;;;;3.36;100.00;100835.55;106789;1253;98946;-63
2022/12/06 00:26:35;;;;;;;298.90;98.20;;;;;;;3.35;100.00;100835.73;106700;1239;140766;-64
2022/12/06 00:29:00;;;;;;;272.90;96.60;;;;;;;3.38;100.00;100830.77;106765;1233;111962;-63
2022/12/06 00:31:29;;;;;;;268.00;95.40;;;;;;;3.38;100.00;100832.35;106769;1232;99010;-61
2022/12/06 00:33:55;;;;;;;283.70;95.50;;;;;;;3.39;100.00;100834.11;106658;1236;141070;-65
2022/12/06 00:36:26;;;;;;;282.60;96.00;;;;;;;3.40;100.00;100836.93;106734;1236;99830;-64
2022/12/06 00:38:53;;;;;;;265.60;91.50;;;;;;;3.42;100.00;100836.73;106782;1252;139252;-64
2022/12/06 00:41:21;;;;;;;258.00;90.10;;;;;;;3.42;100.00;100831.07;106744;1236;102765;-64
2022/12/06 00:43:47;;;;;;;277.20;94.50;;;;;;;3.41;100.00;100830.90;106801;1237;99114;-64
2022/12/06 00:46:16;;;;;;;272.80;95.60;;;;;;;3.41;100.00;100826.48;106605;1231;139676;-65
2022/12/06 00:48:42;;;;;;;277.80;95.30;;;;;;;3.43;100.00;100822.92;106834;1236;99190;-65
2022/12/06 00:51:07;;;;;;;268.60;93.00;;;;;;;3.44;100.00;100820.98;106776;1252;139279;-64
2022/12/06 00:53:32;;;;;;;272.30;91.10;;;;;;;3.43;100.00;100815.87;106836;1237;99034;-65
2022/12/06 00:55:58;;;;;;;257.30;90.20;;;;;;;3.40;100.00;100816.79;106719;1232;98993;-64
2022/12/06 00:58:23;;;;;;;273.00;94.20;;;;;;;3.40;100.00;100815.02;106730;1244;140312;-64
2022/12/06 01:00:49;;;;;;;257.10;88.80;;;;;;;3.41;100.00;100812.17;106785;1245;113004;-65
2022/12/06 01:03:14;;;;;;;264.40;91.90;;;;;;;3.40;100.00;100803.55;106697;1252;139144;-64
2022/12/06 01:05:42;;;;;;;278.30;95.40;;;;;;;3.39;100.00;100798.08;106935;1236;99098;-64
2022/12/06 01:08:08;;;;;;;272.20;96.80;;;;;;;3.39;100.00;100800.37;106845;1253;99618;-64
2022/12/06 01:10:34;;;;;;;269.70;92.50;;;;;;;3.39;100.00;100799.66;106700;1233;139112;-63
2022/12/06 01:12:59;;;;;;;279.30;91.80;;;;;;;3.39;100.00;100800.19;106759;1236;99043;-62
2022/12/06 01:15:25;;;;;;;276.60;94.10;;;;;;;3.39;100.00;100807.61;106710;1246;139523;-64
2022/12/06 01:17:50;;;;;;;266.00;91.10;;;;;;;3.39;100.00;100809.55;106874;1253;99100;-64
2022/12/06 01:20:15;;;;;;;266.90;92.20;;;;;;;3.40;100.00;100807.25;106691;1229;100791;-65
2022/12/06 01:22:40;;;;;;;260.40;93.00;;;;;;;3.42;100.00;100809.87;106830;1244;139700;-64
2022/12/06 01:25:07;;;;;;;259.90;91.80;;;;;;;3.44;100.00;100808.61;106981;1244;98777;-62
2022/12/06 01:27:32;;;;;;;261.70;90.60;;;;;;;3.45;100.00;100809.84;106952;1234;141012;-63
2022/12/06 01:29:57;;;;;;;265.70;93.60;;;;;;;3.45;100.00;100811.25;106939;1227;99076;-63
2022/12/06 01:32:22;;;;;;;257.70;87.50;;;;;;;3.44;100.00;100811.44;106969;1234;100465;-63
2022/12/06 01:34:51;;;;;;;266.70;90.30;;;;;;;3.44;100.00;100814.43;106875;1243;139096;-63
2022/12/06 01:37:19;;;;;;;277.10;94.70;;;;;;;3.44;100.00;100818.33;106886;1227;99269;-63
2022/12/06 01:39:44;;;;;;;278.60;95.70;;;;;;;3.44;100.00;100824.70;106724;1227;139955;-63
2022/12/06 01:42:11;;;;;;;276.10;94.20;;;;;;;3.43;100.00;100826.11;106864;1227;98979;-63
2022/12/06 01:44:46;;;;;;;263.20;89.40;;;;;;;3.43;100.00;100824.88;106838;1242;139124;-63
2022/12/06 01:47:23;;;;;;;270.40;92.90;;;;;;;3.42;100.00;100821.88;106884;1231;112773;-63
2022/12/06 01:50:08;;;;;;;261.60;89.10;;;;;;;3.42;100.00;100823.30;106990;1234;99985;-63
2022/12/06 01:52:38;;;;;;;277.60;92.90;;;;;;;3.41;100.00;100826.66;106797;1243;140608;-63
2022/12/06 01:55:06;;;;;;;275.60;88.30;;;;;;;3.42;100.00;100824.54;106882;1244;99002;-63
2022/12/06 01:57:33;;;;;;;263.70;88.20;;;;;;;3.41;100.00;100819.42;107051;1234;139030;-63
2022/12/06 01:59:59;;;;;;;267.30;82.50;;;;;;;3.40;100.00;100812.02;106959;1246;100168;-63
2022/12/06 02:02:24;;;;;;;256.20;82.70;;;;;;;3.40;100.00;100806.02;107037;1243;98986;-63
2022/12/06 02:04:51;;;;;;;271.10;86.10;;;;;;;3.40;100.00;100801.95;106639;1236;138857;-63
2022/12/06 02:07:18;;;;;;;251.40;81.70;;;;;;;3.42;100.00;100803.16;106809;1244;99039;-63
2022/12/06 02:09:44;;;;;;;273.30;81.70;;;;;;;3.43;100.00;100800.67;106739;1253;139648;-63
2022/12/06 02:12:12;;;;;;;255.30;75.80;;;;;;;3.44;100.00;100797.84;106827;1247;99029;-63
2022/12/06 02:14:38;;;;;;;245.50;75.50;;;;;;;3.42;100.00;100791.49;106700;1246;139419;-63
2022/12/06 02:17:13;;;;;;;250.60;76.20;;;;;;;3.42;100.00;100787.79;106840;1236;98955;-63
2022/12/06 02:19:59;;;;;;;255.00;74.40;;;;;;;3.42;100.00;100784.08;106822;1247;113000;-63
2022/12/06 02:22:47;;;;;;;251.80;72.20;;;;;;;3.44;100.00;100783.88;106697;1253;140352;-63
2022/12/06 02:25:27;;;;;;;266.90;77.80;;;;;;;3.44;100.00;100772.22;106724;1254;107785;-62
2022/12/06 02:28:14;;;;;;;272.20;78.70;;;;;;;3.45;100.00;100764.27;106764;1244;140264;-62
2022/12/06 02:31:12;;;;;;;258.50;73.20;;;;;;;3.46;100.00;100754.35;106840;1245;99969;-62
2022/12/06 02:33:47;;;;;;;264.00;77.90;;;;;;;3.47;100.00;100747.45;106730;1253;139771;-63
2022/12/06 02:36:29;;;;;;;252.40;73.30;;;;;;;3.48;100.00;100742.68;106785;1245;99337;-63
2022/12/06 02:39:26;;;;;;;253.40;73.50;;;;;;;3.48;100.00;100736.67;106688;1245;139692;-63
2022/12/06 02:42:18;;;;;;;272.40;73.30;;;;;;;3.47;100.00;100728.02;106709;1231;99163;-63
2022/12/06 02:44:53;;;;;;;264.10;75.60;;;;;;;3.45;100.00;100730.87;106734;1246;140628;-63
2022/12/06 02:47:23;;;;;;;260.10;71.10;;;;;;;3.47;100.00;100736.34;106805;1229;112187;-63
2022/12/06 02:49:49;;;;;;;257.20;73.50;;;;;;;3.46;100.00;100740.23;106775;1236;100927;-63
2022/12/06 02:52:17;;;;;;;261.00;72.20;;;;;;;3.46;100.00;100730.34;106662;1245;140680;-63
2022/12/06 02:54:46;;;;;;;264.10;71.40;;;;;;;3.46;100.00;100733.16;106926;1245;98984;-63
2022/12/06 02:57:11;;;;;;;248.10;73.70;;;;;;;3.47;100.00;100727.14;106729;1245;140552;-63
2022/12/06 02:59:37;;;;;;;239.50;71.70;;;;;;;3.48;100.00;100723.95;106789;1229;99069;-63
2022/12/06 03:02:08;;;;;;;260.40;70.90;;;;;;;3.47;100.00;100713.71;106842;1244;99076;-63
2022/12/06 03:04:52;;;;;;;269.50;75.10;;;;;;;3.46;100.00;100708.78;106719;1259;139831;-62
2022/12/06 03:07:42;;;;;;;266.10;75.10;;;;;;;3.47;100.00;100713.19;106771;1237;98485;-63
2022/12/06 03:10:13;;;;;;;256.70;69.10;;;;;;;3.47;100.00;100710.18;106707;1229;139377;-63
2022/12/06 03:12:47;;;;;;;262.70;69.00;;;;;;;3.46;100.00;100710.73;106803;1239;100274;-63
2022/12/06 03:15:22;;;;;;;281.40;76.40;;;;;;;3.47;100.00;100713.02;106639;1236;140245;-63
2022/12/06 03:18:13;;;;;;;254.60;69.80;;;;;;;3.47;100.00;100711.77;106738;1229;98969;-63
2022/12/06 03:20:41;;;;;;;;;;;;;;;3.46;100.00;100711.07;106685;1233;139684;-63
2022/12/06 03:23:14;;;;;;;273.20;71.00;;;;;;;3.48;100.00;100706.46;106745;1236;112804;-63
2022/12/06 03:25:41;;;;;;;260.80;70.90;;;;;;;3.49;100.00;100705.73;106830;1252;100468;-63
2022/12/06 03:28:12;;;;;;;254.80;70.70;;;;;;;3.51;100.00;100709.42;106626;1236;139628;-63
2022/12/06 03:30:40;;;;;;;241.20;64.60;;;;;;;3.52;100.00;100707.47;106789;1229;99448;-63
2022/12/06 03:33:05;;;;;;;270.50;71.20;;;;;;;3.52;100.00;100710.46;106705;1236;140289;-63
2022/12/06 03:35:33;;;;;;;208.20;62.80;;;;;;;3.54;100.00;100707.97;106787;1236;98959;-63
2022/12/06 03:38:15;;;;;;;273.30;73.30;;;;;;;3.55;100.00;100711.13;106758;1229;98965;-63
2022/12/06 03:40:44;;;;;;;;;;;;;;;3.57;100.00;100711.64;106731;1236;139309;-63
2022/12/06 03:43:09;;;;;;;272.90;71.90;;;;;;;3.55;100.00;100709.19;106839;1229;99247;-64
2022/12/06 03:45:41;;;;;;;281.10;71.70;;;;;;;3.52;100.00;100703.92;106765;1245;139404;-63
2022/12/06 03:48:32;;;;;;;264.60;74.10;;;;;;;3.51;100.00;100701.29;106798;1236;113061;-63
2022/12/06 03:51:06;;;;;;;282.40;73.00;;;;;;;3.52;100.00;100700.76;106645;1233;141518;-63
2022/12/06 03:53:32;;;;;;;296.80;74.50;;;;;;;3.52;100.00;100700.04;106881;1236;106172;-63
2022/12/06 03:55:58;;;;;;;306.00;76.90;;;;;;;3.54;100.00;100703.19;106740;1233;99036;-62
2022/12/06 03:58:23;;;;;;;283.00;73.30;;;;;;;3.54;100.00;100696.67;106713;1237;141488;-63
2022/12/06 04:00:49;;;;;;;280.00;74.40;;;;;;;3.54;100.00;100694.72;106852;1236;100029;-63
2022/12/06 04:03:14;;;;;;;290.30;74.20;;;;;;;3.54;100.00;100691.18;106689;1236;140413;-63
2022/12/06 04:05:39;;;;;;;273.80;71.30;;;;;;;3.54;100.00;100687.46;106922;1236;99246;-63
2022/12/06 04:08:05;;;;;;;261.90;74.80;;;;;;;3.52;100.00;100687.50;106758;1236;100542;-63
2022/12/06 04:10:30;;;;;;;286.30;73.20;;;;;;;3.50;100.00;100687.17;106753;1229;139476;-63
2022/12/06 04:13:01;;;;;;;276.00;73.30;;;;;;;3.52;100.00;100683.98;106774;1236;99085;-62
2022/12/06 04:15:37;;;;;;;233.00;61.70;;;;;;;3.53;100.00;100684.84;106833;1239;139587;-63
2022/12/06 04:18:14;;;;;;;261.60;70.10;;;;;;;3.50;100.00;100684.88;106823;1243;112952;-63
2022/12/06 04:23:39;;;;;;;265.90;69.90;;;;;;;3.52;100.00;100679.20;106821;1254;106240;-63
2022/12/06 04:26:07;;;;;;;272.70;72.20;;;;;;;3.53;100.00;100683.42;106866;1249;102897;-62
2022/12/06 04:39:31;;;;;;;280.90;70.70;;;;;;;3.54;100.00;100684.48;106708;1252;140786;-63
2022/12/06 04:44:41;;;;;;;264.70;66.90;;;;;;;3.52;100.00;100670.54;106755;1237;139710;-63
2022/12/06 04:47:08;;;;;;;285.00;73.00;;;;;;;3.52;100.00;100668.23;106737;1236;99094;-63
2022/12/06 04:49:34;;;;;;;282.70;68.50;;;;;;;3.51;100.00;100668.08;106833;1245;98998;-63
2022/12/06 04:52:00;;;;;;;266.60;68.70;;;;;;;3.50;100.00;100670.75;106718;1233;139245;-61
2022/12/06 04:54:26;;;;;;;271.50;68.30;;;;;;;3.50;100.00;100673.58;106884;1236;99806;-64
2022/12/06 04:56:52;;;;;;;261.60;66.50;;;;;;;3.50;100.00;100677.64;106777;1246;140232;-64
2022/12/06 04:59:18;;;;;;;254.70;69.40;;;;;;;3.51;100.00;100674.44;106917;1238;99089;-64
2022/12/06 05:01:43;;;;;;;282.80;74.60;;;;;;;3.53;100.00;100674.59;106845;1244;98955;-64
2022/12/06 05:04:08;;;;;;;393.80;101.40;;;;;;;3.53;100.00;100672.11;106754;1236;140135;-65
2022/12/06 05:06:34;;;;;;;347.10;90.70;;;;;;;3.51;100.00;100667.37;106786;1244;99348;-64
2022/12/06 05:08:59;;;;;;;334.90;88.80;;;;;;;3.53;100.00;100665.77;106637;1236;139929;-64
2022/12/06 05:11:25;;;;;;;395.40;101.00;;;;;;;3.53;100.00;100665.05;106888;1236;99031;-64
2022/12/06 05:13:50;;;;;;;307.50;85.30;;;;;;;3.54;100.00;100667.34;106843;1236;98974;-64
2022/12/06 05:16:16;;;;;;;276.90;72.80;;;;;;;3.55;100.00;100663.95;106737;1252;140109;-64
2022/12/06 05:18:42;;;;;;;264.60;73.30;;;;;;;3.56;100.00;100663.77;106744;1246;99130;-64
2022/12/06 05:21:12;;;;;;;277.90;70.80;;;;;;;3.58;100.00;100658.97;106704;1252;140946;-64
2022/12/06 05:23:37;;;;;;;261.40;69.80;;;;;;;3.57;100.00;100658.81;106686;1236;99783;-65
2022/12/06 05:26:06;;;;;;;278.20;71.10;;;;;;;3.57;100.00;100660.56;106760;1229;99003;-64
2022/12/06 05:28:32;;;;;;;275.50;70.40;;;;;;;3.57;100.00;100664.64;106625;1236;139766;-64
2022/12/06 05:30:58;;;;;;;274.40;68.50;;;;;;;3.56;100.00;100664.48;106921;1236;99479;-64
2022/12/06 05:33:24;;;;;;;279.20;71.30;;;;;;;3.57;100.00;100660.58;106737;1245;140011;-64
2022/12/06 05:35:49;;;;;;;275.40;68.90;;;;;;;3.56;100.00;100662.88;106892;1231;108689;-64
2022/12/06 05:38:15;;;;;;;274.20;71.70;;;;;;;3.55;100.00;100660.77;106828;1236;98967;-64
2022/12/06 05:40:42;;;;;;;275.70;72.70;;;;;;;3.54;100.00;100658.15;106771;1238;139052;-65
2022/12/06 05:43:07;;;;;;;253.80;66.60;;;;;;;3.52;100.00;100656.23;106823;1245;99162;-65
2022/12/06 05:45:33;;;;;;;248.80;63.20;;;;;;;3.52;100.00;100655.17;106685;1244;139508;-64
2022/12/06 05:47:58;;;;;;;223.60;62.50;;;;;;;3.52;100.00;100659.23;106758;1239;100996;-64
2022/12/06 05:50:23;;;;;;;234.60;59.30;;;;;;;3.50;100.00;100655.55;106817;1243;99077;-65
2022/12/06 05:52:53;;;;;;;252.50;63.60;;;;;;;3.48;100.00;100659.46;106746;1236;139562;-64
2022/12/06 05:55:18;;;;;;;218.50;59.50;;;;;;;3.47;100.00;100664.77;106907;1245;99548;-64
2022/12/06 05:57:43;;;;;;;223.10;57.90;;;;;;;3.49;100.00;100669.00;106725;1236;140182;-64
2022/12/06 06:00:09;;;;;;;227.90;60.30;;;;;;;3.46;100.00;100668.50;106809;1236;99039;-64
2022/12/06 06:02:34;;;;;;;232.00;61.10;;;;;;;3.42;100.00;100667.67;106844;1233;139115;-65
2022/12/06 06:05:00;;;;;;;232.50;59.50;;;;;;;3.41;100.00;100663.11;106884;1253;98978;-64
2022/12/06 06:07:25;;;;;;;216.20;58.80;;;;;;;3.41;100.00;100653.91;106821;1249;99119;-64
2022/12/06 06:09:50;;;;;;;241.50;60.20;;;;;;;3.43;100.00;100650.53;106685;1236;140902;-64
2022/12/06 06:12:15;;;;;;;212.40;58.80;;;;;;;3.44;100.00;100648.39;106769;1236;98955;-64
2022/12/06 06:14:40;;;;;;;270.70;57.30;;;;;;;3.43;100.00;100645.59;106698;1236;140497;-65
2022/12/06 06:17:06;;;;;;;241.80;59.70;;;;;;;3.39;100.00;100642.98;106773;1229;99674;-64
2022/12/06 06:19:31;;;;;;;245.90;62.20;;;;;;;3.39;100.00;100641.75;106764;1236;99048;-64
2022/12/06 06:21:56;;;;;;;215.40;57.90;;;;;;;3.42;100.00;100642.95;106783;1236;139053;-64
2022/12/06 06:24:22;;;;;;;222.30;56.80;;;;;;;3.40;100.00;100643.88;106794;1229;112852;-64
2022/12/06 06:26:48;;;;;;;194.70;53.20;;;;;;;3.39;100.00;100642.63;106664;1236;140278;-64
2022/12/06 06:29:14;;;;;;;203.40;54.80;;;;;;;3.40;100.00;100647.56;107146;1236;99000;-64
2022/12/06 06:31:39;;;;;;;244.40;56.90;;;;;;;3.40;100.00;100649.86;106855;1229;99458;-64
2022/12/06 06:34:05;;;;;;;173.80;51.00;;;;;;;3.39;100.00;100647.23;106757;1237;138851;-64
2022/12/06 06:36:30;;;;;;;185.80;48.30;;;;;;;3.39;100.00;100644.93;106970;1244;99213;-64
2022/12/06 06:38:57;;;;;;;204.90;55.00;;;;;;;3.40;100.00;100646.34;106818;1243;140198;-64
2022/12/06 06:41:23;;;;;;;204.00;54.60;;;;;;;3.38;100.00;100645.48;106895;1227;99059;-64
2022/12/06 06:43:48;;;;;;;185.80;52.50;;;;;;;3.39;100.00;100645.98;106993;1227;99244;-64
2022/12/06 06:46:13;;;;;;;184.80;48.70;;;;;;;3.39;100.00;100641.94;106695;1244;138982;-64
2022/12/06 06:48:39;;;;;;;182.40;51.20;;;;;;;3.38;100.00;100644.25;106842;1234;99079;-65
2022/12/06 06:51:10;;;;;;;206.90;55.50;;;;;;;3.34;100.00;100641.11;106863;1235;140119;-65
2022/12/06 06:53:36;;;;;;;194.80;51.90;;;;;;;3.33;100.00;100638.84;106795;1230;100417;-65
2022/12/06 06:56:02;;;;;;;174.90;48.60;;;;;;;3.35;100.00;100638.99;106755;1241;98965;-65
2022/12/06 06:58:28;;;;;;;173.80;46.90;;;;;;;3.36;100.00;100637.22;106699;1236;140412;-64
2022/12/06 07:00:56;;;;;;;184.00;51.30;;;;;;;3.33;100.00;100630.02;106788;1233;99162;-64
2022/12/06 07:03:22;;;;;;;181.20;46.70;;;;;;;3.31;100.00;100637.28;106565;1236;139799;-64
2022/12/06 07:05:55;;;;;;;189.20;50.80;;;;;;;3.30;100.00;100646.64;106664;1229;99298;-64
2022/12/06 07:08:23;;;;;;;178.50;50.50;;;;;;;3.31;100.00;100642.22;106711;1229;99009;-64
2022/12/06 07:10:49;;;;;;;198.20;53.50;;;;;;;3.34;100.00;100641.48;106806;1236;138938;-65
2022/12/06 07:13:16;;;;;;;192.10;53.60;;;;;;;3.34;100.00;100634.23;106749;1238;99072;-64
2022/12/06 07:15:41;;;;;;;172.40;51.90;;;;;;;3.36;100.00;100633.49;106627;1229;141017;-64
2022/12/06 07:18:06;;;;;;;172.40;51.10;;;;;;;3.39;100.00;100636.83;106669;1229;99124;-64
2022/12/06 07:20:32;;;;;;;170.30;48.50;;;;;;;3.40;100.00;100638.57;106605;1236;139203;-64
2022/12/06 07:22:57;;;;;;;151.50;44.80;;;;;;;3.40;100.00;100632.38;106712;1233;99117;-65
2022/12/06 07:25:23;;;;;;;161.30;43.40;;;;;;;3.39;100.00;100638.41;106784;1244;107110;-64
2022/12/06 07:27:48;;;;;;;150.20;47.10;;;;;;;3.36;100.00;100643.03;106645;1236;141408;-64
2022/12/06 07:30:14;;;;;;;144.80;42.70;;;;;;;3.37;100.00;100642.86;106767;1229;100320;-65
2022/12/06 07:32:42;;;;;;;154.30;48.00;;;;;;;3.35;100.00;100642.70;106739;1236;139984;-64
2022/12/06 07:35:07;;;;;;;160.20;48.70;;;;;;;3.35;100.00;100646.06;106868;1236;99019;-64
2022/12/06 07:37:33;;;;;;;170.10;48.30;;;;;;;3.35;100.00;100646.05;106954;1238;99144;-64
2022/12/06 07:39:58;;;;;;;173.10;44.80;;;;;;;3.35;100.00;100651.52;106779;1244;139494;-64
2022/12/06 07:45:11;;;;;;;166.20;50.00;;;;;;;3.36;100.00;100644.63;106626;1236;139072;-64
2022/12/06 07:47:45;;;;;;;166.80;50.20;;;;;;;3.37;100.00;100639.84;106725;1236;98999;-65
2022/12/06 07:50:14;;;;;;;164.00;46.70;;;;;;;3.38;100.00;100640.36;106694;1243;99101;-64
2022/12/06 07:52:39;;;;;;;174.50;50.90;;;;;;;3.41;100.00;100646.85;106732;1232;141582;-63
2022/12/06 07:55:06;;;;;;;169.30;48.60;;;;;;;3.40;100.00;100645.27;106743;1238;99532;-64
2022/12/06 07:57:32;;;;;;;159.20;49.10;;;;;;;3.40;100.00;100639.80;106688;1236;140609;-63
2022/12/06 07:59:57;;;;;;;154.10;46.40;;;;;;;3.41;100.00;100636.60;106738;1244;100092;-64
2022/12/06 08:02:25;;;;;;;168.00;44.80;;;;;;;3.44;100.00;100638.52;106730;1246;99106;-64
2022/12/06 08:04:52;;;;;;;154.90;49.20;;;;;;;3.45;100.00;100636.73;106717;1233;139423;-63
2022/12/06 08:07:17;;;;;;;169.10;49.10;;;;;;;3.44;100.00;100639.21;106948;1229;100593;-63
2022/12/06 08:09:43;;;;;;;163.60;47.00;;;;;;;3.44;100.00;100643.62;106551;1236;139786;-64
2022/12/06 08:12:08;;;;;;;149.70;43.50;;;;;;;3.45;100.00;100643.08;106636;1229;99273;-63
2022/12/06 08:14:34;;;;;;;154.90;47.00;;;;;;;3.44;100.00;100641.16;106648;1247;139034;-64
2022/12/06 08:17:00;;;;;;;171.50;47.70;;;;;;;3.43;100.00;100639.05;106631;1235;99078;-64
2022/12/06 08:19:25;;;;;;;148.50;47.70;;;;;;;3.44;100.00;100635.85;106644;1229;98992;-64
2022/12/06 08:21:51;;;;;;;169.10;49.80;;;;;;;3.42;100.00;100627.77;106601;1236;139684;-64
2022/12/06 08:24:16;;;;;;;163.70;47.40;;;;;;;3.41;100.00;100629.19;106770;1236;99956;-65
2022/12/06 08:26:42;;;;;;;140.00;44.70;;;;;;;3.41;100.00;100630.78;106638;1229;140431;-64
2022/12/06 08:29:09;;;;;;;142.90;45.90;;;;;;;3.42;100.00;100632.70;106798;1237;99052;-64
2022/12/06 08:31:34;;;;;;;137.90;43.80;;;;;;;3.40;100.00;100635.57;106929;1236;99039;-65
2022/12/06 08:34:00;;;;;;;159.20;46.50;;;;;;;3.38;100.00;100632.41;107159;1236;140690;-64
2022/12/06 08:36:27;;;;;;;142.30;47.00;;;;;;;3.36;100.00;100632.45;107392;1246;99065;-65
2022/12/06 08:38:53;;;;;;;144.40;45.90;;;;;;;3.33;100.00;100629.13;107153;1245;139668;-64
2022/12/06 08:44:04;;;;;;;152.50;46.00;;;;;;;3.26;100.00;100624.45;107284;1239;107703;-65
2022/12/06 08:46:31;;;;;;;154.60;46.00;;;;;;;3.26;100.00;100623.58;107165;1233;140088;-65
2022/12/06 08:48:57;;;;;;;160.10;46.90;;;;;;;3.25;100.00;100622.71;107305;1244;99176;-64
2022/12/06 08:51:23;;;;;;;182.00;48.70;;;;;;;3.25;100.00;100617.77;107184;1238;139052;-65
2022/12/06 08:53:51;;;;;;;173.70;45.90;;;;;;;3.27;100.00;100618.44;107211;1245;98964;-65
2022/12/06 08:56:16;;;;;;;141.60;43.50;;;;;;;3.27;100.00;100620.38;107262;1237;99064;-65
2022/12/06 08:58:42;;;;;;;160.10;46.00;;;;;;;3.29;100.00;100621.95;107209;1238;139454;-65
2022/12/06 09:01:16;;;;;;;151.70;44.00;;;;;;;3.29;100.00;100621.60;107343;1234;100037;-65
2022/12/06 09:03:42;;;;;;;146.60;43.80;;;;;;;3.26;100.00;100615.80;107222;1236;139125;-65
2022/12/06 09:06:08;;;;;;;162.40;49.50;;;;;;;3.22;100.00;100610.91;107246;1229;98970;-65
2022/12/06 09:08:35;;;;;;;158.00;45.60;;;;;;;3.23;100.00;100608.77;107232;1244;140687;-65
2022/12/06 09:11:01;;;;;;;150.30;45.50;;;;;;;3.25;100.00;100612.11;107260;1244;99217;-64
2022/12/06 09:13:26;;;;;;;159.00;43.60;;;;;;;3.26;100.00;100609.97;107251;1246;99071;-64
2022/12/06 09:15:51;;;;;;;148.20;42.40;;;;;;;3.23;100.00;100609.31;107252;1245;139676;-66
2022/12/06 09:18:16;;;;;;;145.00;43.10;;;;;;;3.20;100.00;100604.23;107248;1246;99220;-65
2022/12/06 09:20:42;;;;;;;163.00;45.90;;;;;;;3.19;100.00;100604.41;107239;1236;140121;-65
2022/12/06 09:23:07;;;;;;;168.00;46.50;;;;;;;3.19;100.00;100606.90;107238;1245;100576;-65
2022/12/06 09:25:32;;;;;;;160.00;45.30;;;;;;;3.20;100.00;100603.88;107314;1242;99088;-65
2022/12/06 09:27:58;;;;;;;144.40;44.20;;;;;;;3.19;100.00;100608.13;107269;1245;138954;-64
2022/12/06 09:30:24;;;;;;;142.60;42.40;;;;;;;3.19;100.00;100606.89;107308;1236;99437;-65
2022/12/06 09:32:50;;;;;;;140.70;45.20;;;;;;;3.19;100.00;100604.42;107123;1252;139228;-63
2022/12/06 09:35:15;;;;;;;131.90;40.80;;;;;;;3.22;100.00;100604.20;106805;1239;98981;-64
2022/12/06 09:37:41;;;;;;;144.10;40.90;;;;;;;3.22;100.00;100606.48;106761;1238;99049;-64
2022/12/06 09:40:17;;;;;;;139.10;43.00;;;;;;;3.21;100.00;100600.86;107019;1236;139144;-65
2022/12/06 09:43:04;;;;;;;160.40;45.90;;;;;;;3.20;100.00;100595.92;107325;1238;99061;-66
2022/12/06 09:45:35;;;;;;;139.50;42.20;;;;;;;3.19;100.00;100589.41;107163;1246;139238;-65
2022/12/06 09:48:25;;;;;;;138.20;44.40;;;;;;;3.18;100.00;100592.61;107300;1245;112554;-65
2022/12/06 09:51:12;;;;;;;141.40;43.30;;;;;;;3.17;100.00;100589.27;107202;1252;139288;-65
2022/12/06 09:53:51;;;;;;;124.20;37.90;;;;;;;3.19;100.00;100585.88;107277;1246;107316;-65
2022/12/06 09:56:46;;;;;;;123.50;39.30;;;;;;;3.19;100.00;100579.35;107278;1229;99067;-65
2022/12/06 09:59:51;;;;;;;127.90;38.50;;;;;;;3.20;100.00;100573.87;107245;1246;99061;-66
2022/12/06 10:02:33;;;;;;;126.90;42.90;;;;;;;3.23;100.00;100575.41;107309;1251;112432;-65
2022/12/06 10:05:29;;;;;;;118.70;37.90;;;;;;;3.22;100.00;100571.52;107203;1250;139426;-65
2022/12/06 10:08:20;;;;;;;126.20;40.90;;;;;;;3.25;100.00;100569.73;107334;1229;107342;-65
2022/12/06 10:10:56;;;;;;;140.70;42.70;;;;;;;3.29;100.00;100568.97;107187;1236;139236;-65
2022/12/06 10:13:48;;;;;;;114.70;39.60;;;;;;;3.30;100.00;100562.77;107291;1237;98950;-66
2022/12/06 10:16:19;;;;;;;115.60;38.90;;;;;;;3.24;100.00;100557.02;107163;1235;138859;-65
2022/12/06 10:18:44;;;;;;;;;;;;;;;3.20;100.00;100555.85;107289;1252;99334;-65
2022/12/06 10:21:36;;;;;;;109.40;34.50;;;;;;;3.21;100.00;100558.84;107164;1236;127640;-65
2022/12/06 10:24:17;;;;;;;107.50;35.50;;;;;;;3.19;100.00;100552.16;107272;1252;99043;-65
2022/12/06 10:26:59;;;;;;;122.70;38.40;;;;;;;3.18;100.00;100554.28;107209;1236;140602;-66
2022/12/06 10:29:52;;;;;;;111.40;38.90;;;;;;;3.21;100.00;100550.02;107325;1246;112495;-66
2022/12/06 10:32:31;;;;;;;129.40;40.20;;;;;;;3.22;100.00;100548.40;107371;1236;99540;-66
2022/12/06 10:35:03;;;;;;;105.90;36.40;;;;;;;3.24;100.00;100551.73;107251;1238;138819;-66
2022/12/06 10:37:28;;;;;;;104.40;36.40;;;;;;;3.30;100.00;100554.13;107377;1237;99166;-65
2022/12/06 10:40:06;;;;;;;104.00;38.00;;;;;;;3.33;100.00;100551.42;107280;1235;140745;-65
2022/12/06 10:42:40;;;;;;;105.90;34.90;;;;;;;3.36;100.00;100549.97;107346;1245;112508;-65
2022/12/06 10:48:31;;;;;;;109.00;36.60;;;;;;;3.36;100.00;100541.48;107315;1239;107621;-64
2022/12/06 10:51:05;;;;;;;104.90;37.00;;;;;;;3.34;100.00;100542.92;107113;1246;139789;-64
2022/12/06 10:53:40;;;;;;;120.40;39.30;;;;;;;3.34;100.00;100543.82;107321;1237;99051;-65
2022/12/06 10:56:14;;;;;;;102.60;37.30;;;;;;;3.33;100.00;100539.59;107262;1235;114259;-65
2022/12/06 10:58:54;;;;;;;99.80;35.60;;;;;;;3.30;100.00;100531.15;107178;1242;140149;-64
2022/12/06 11:01:25;;;;;;;100.70;34.50;;;;;;;3.30;100.00;100527.10;107283;1237;106758;-64
2022/12/06 11:04:04;;;;;;;100.70;35.70;;;;;;;3.32;100.00;100529.72;107220;1234;139140;-65
2022/12/06 11:06:36;;;;;;;108.30;38.10;;;;;;;3.29;100.00;100523.77;107307;1236;99219;-65
2022/12/06 11:09:18;;;;;;;95.30;36.20;;;;;;;3.23;100.00;100522.79;107211;1244;139126;-65
2022/12/06 11:11:44;;;;;;;96.80;33.80;;;;;;;3.21;100.00;100522.65;107379;1242;99471;-65
2022/12/06 11:14:28;;;;;;;90.90;32.80;;;;;;;3.22;100.00;100529.34;107280;1236;98994;-65
2022/12/06 11:17:18;;;;;;;93.50;35.00;;;;;;;3.26;100.00;100530.86;107224;1233;138724;-65
2022/12/06 11:19:51;;;;;;;90.50;35.90;;;;;;;3.26;100.00;100531.74;107340;1236;101423;-64
2022/12/06 11:22:40;;;;;;;88.30;32.80;;;;;;;3.27;100.00;100528.55;107188;1245;141021;-65
2022/12/06 11:25:15;;;;;;;97.80;36.10;;;;;;;3.29;100.00;100526.23;107337;1237;99692;-63
2022/12/06 11:28:00;;;;;;;99.70;36.50;;;;;;;3.30;100.00;100518.98;106813;1237;139784;-65